createdAt,value
2022-08-02T00:00:44.117Z,2.65
2022-08-02T00:02:47.418Z,2.50
2022-08-02T00:04:49.397Z,2.63
2022-08-02T00:06:51.383Z,3.00
2022-08-02T00:08:53.969Z,2.50
2022-08-02T00:10:55.861Z,2.67
2022-08-02T00:12:58.017Z,2.80
2022-08-02T00:14:59.770Z,2.38
2022-08-02T00:17:01.603Z,2.80
2022-08-02T00:19:03.945Z,2.70
2022-08-02T00:21:05.993Z,2.65
2022-08-02T00:23:07.761Z,2.50
2022-08-02T00:25:09.763Z,2.53
2022-08-02T00:27:11.555Z,2.63
2022-08-02T00:29:13.773Z,2.50
2022-08-02T00:31:15.683Z,2.60
2022-08-02T00:33:17.636Z,2.60
2022-08-02T00:35:40.698Z,2.30
2022-08-02T00:37:42.848Z,2.60
2022-08-02T00:39:44.712Z,2.65
2022-08-02T00:41:52.023Z,2.80
2022-08-02T00:43:55.220Z,2.45
2022-08-02T00:46:02.255Z,2.67
2022-08-02T00:48:07.773Z,2.80
2022-08-02T00:50:10.087Z,3.03
2022-08-02T00:52:12.198Z,2.10
2022-08-02T00:54:14.932Z,2.70
2022-08-02T00:56:16.745Z,2.80
2022-08-02T00:58:18.600Z,2.45
2022-08-02T01:00:20.965Z,2.42
2022-08-02T01:02:22.860Z,2.80
2022-08-02T01:04:30.749Z,2.30
2022-08-02T01:06:34.392Z,2.78
2022-08-02T01:08:38.818Z,2.88
2022-08-02T01:10:41.162Z,2.72
2022-08-02T01:12:43.175Z,2.20
2022-08-02T01:14:48.210Z,2.65
2022-08-02T01:16:54.794Z,2.90
2022-08-02T01:19:02.061Z,2.55
2022-08-02T01:21:22.471Z,2.92
2022-08-02T01:23:45.736Z,3.58
2022-08-02T01:25:59.252Z,2.67
2022-08-02T01:28:22.207Z,2.80
2022-08-02T01:30:24.486Z,2.70
2022-08-02T01:32:34.102Z,2.80
2022-08-02T01:34:41.643Z,2.88
2022-08-02T01:37:09.218Z,2.30
2022-08-02T01:39:27.361Z,2.90
2022-08-02T01:41:35.693Z,2.60
2022-08-02T01:43:40.340Z,2.78
2022-08-02T01:45:43.719Z,2.63
2022-08-02T01:47:48.182Z,2.63
2022-08-02T01:49:53.132Z,2.55
2022-08-02T01:52:14.997Z,2.53
2022-08-02T01:54:22.269Z,2.42
2022-08-02T01:56:24.639Z,3.13
2022-08-02T01:58:30.103Z,2.80
2022-08-02T02:00:35.441Z,2.40
2022-08-02T02:02:41.738Z,2.72
2022-08-02T02:04:46.502Z,2.45
2022-08-02T02:06:50.519Z,2.50
2022-08-02T02:08:53.236Z,2.72
2022-08-02T02:10:57.119Z,2.42
2022-08-02T02:13:04.321Z,2.17
2022-08-02T02:15:10.473Z,2.47
2022-08-02T02:17:52.770Z,2.20
2022-08-02T02:19:37.527Z,2.63
2022-08-02T02:21:39.413Z,2.65
2022-08-02T02:23:43.732Z,2.35
2022-08-02T02:25:47.393Z,2.30
2022-08-02T02:28:07.378Z,2.47
2022-08-02T02:30:10.095Z,2.38
2022-08-02T02:32:15.049Z,2.60
2022-08-02T02:34:32.384Z,2.40
2022-08-02T02:36:36.480Z,1.95
2022-08-02T02:38:39.989Z,2.47
2022-08-02T02:40:42.348Z,2.30
2022-08-02T02:42:49.352Z,2.65
2022-08-02T02:44:52.630Z,2.80
2022-08-02T02:46:55.794Z,2.60
2022-08-02T02:48:58.912Z,3.15
2022-08-02T02:51:03.846Z,2.78
2022-08-02T02:53:07.150Z,2.75
2022-08-02T02:55:10.427Z,2.78
2022-08-02T02:57:12.846Z,2.60
2022-08-02T02:59:15.567Z,2.75
2022-08-02T03:01:56.212Z,2.83
2022-08-02T03:03:55.216Z,2.75
2022-08-02T03:05:57.170Z,2.92
2022-08-02T03:07:59.161Z,3.83
2022-08-02T03:10:02.699Z,3.00
2022-08-02T03:12:05.622Z,3.78
2022-08-02T03:14:11.494Z,2.95
2022-08-02T03:16:13.502Z,2.55
2022-08-02T03:18:35.445Z,3.10
2022-08-02T03:20:37.365Z,2.80
2022-08-02T03:22:40.755Z,2.80
2022-08-02T03:24:42.580Z,2.95
2022-08-02T03:26:44.471Z,2.70
2022-08-02T03:28:46.304Z,2.53
2022-08-02T03:30:48.142Z,3.08
2022-08-02T03:32:50.470Z,2.70
2022-08-02T03:34:52.569Z,3.53
2022-08-02T03:36:56.818Z,3.05
2022-08-02T03:39:00.411Z,3.08
2022-08-02T03:41:03.980Z,2.60
2022-08-02T03:43:06.731Z,2.47
2022-08-02T03:45:11.673Z,2.70
2022-08-02T03:47:14.292Z,3.40
2022-08-02T03:49:18.418Z,2.95
2022-08-02T03:51:20.957Z,3.15
2022-08-02T03:53:22.971Z,2.85
2022-08-02T03:55:25.409Z,2.55
2022-08-02T03:57:27.200Z,2.80
2022-08-02T03:59:29.005Z,2.97
2022-08-02T04:01:34.408Z,2.92
2022-08-02T04:03:36.364Z,3.13
2022-08-02T04:05:38.264Z,3.80
2022-08-02T04:08:33.185Z,3.65
2022-08-02T04:10:21.907Z,3.45
2022-08-02T04:12:23.682Z,3.72
2022-08-02T04:14:26.664Z,3.20
2022-08-02T04:16:34.833Z,4.30
2022-08-02T04:18:42.606Z,4.00
2022-08-02T04:20:48.878Z,3.65
2022-08-02T04:22:57.707Z,3.80
2022-08-02T04:25:03.827Z,3.30
2022-08-02T04:27:50.107Z,3.20
2022-08-02T04:29:30.898Z,3.20
2022-08-02T04:31:32.963Z,3.13
2022-08-02T04:33:36.592Z,3.55
2022-08-02T04:35:38.667Z,3.65
2022-08-02T04:38:05.599Z,3.47
2022-08-02T04:40:02.928Z,4.70
2022-08-02T04:42:05.015Z,4.18
2022-08-02T04:44:06.969Z,5.40
2022-08-02T04:46:08.770Z,4.50
2022-08-02T04:48:10.584Z,5.32
2022-08-02T04:50:12.404Z,4.90
2022-08-02T04:52:14.575Z,4.80
2022-08-02T04:54:16.819Z,5.10
2022-08-02T04:56:18.706Z,4.55
2022-08-02T05:00:42.734Z,4.43
2022-08-02T05:02:44.538Z,4.70
2022-08-02T05:04:46.793Z,4.90
2022-08-02T05:06:48.580Z,5.00
2022-08-02T05:08:52.744Z,4.80
2022-08-02T05:10:55.253Z,5.28
2022-08-02T05:12:57.136Z,4.13
2022-08-02T05:14:58.902Z,5.30
2022-08-02T05:17:00.881Z,4.32
2022-08-02T05:19:03.372Z,4.15
2022-08-02T05:21:05.296Z,4.85
2022-08-02T05:23:07.097Z,4.20
2022-08-02T05:25:09.845Z,4.40
2022-08-02T05:27:16.990Z,4.10
2022-08-02T05:29:23.780Z,3.92
2022-08-02T05:31:25.723Z,4.10
2022-08-02T05:33:27.584Z,5.10
2022-08-02T05:35:29.341Z,4.68
2022-08-02T05:37:33.010Z,3.90
2022-08-02T05:39:35.088Z,3.75
2022-08-02T05:41:38.920Z,4.68
2022-08-02T05:43:40.768Z,4.00
2022-08-02T05:45:42.531Z,3.90
2022-08-02T05:47:44.411Z,4.10
2022-08-02T05:49:46.596Z,4.18
2022-08-02T05:52:11.264Z,4.45
2022-08-02T05:54:23.497Z,4.25
2022-08-02T05:56:38.863Z,4.15
2022-08-02T05:58:53.558Z,3.88
2022-08-02T06:00:56.907Z,3.33
2022-08-02T06:03:07.558Z,3.38
2022-08-02T06:05:09.380Z,4.10
2022-08-02T06:07:12.747Z,3.50
2022-08-02T06:09:23.201Z,3.40
2022-08-02T06:11:41.820Z,3.50
2022-08-02T06:14:07.982Z,3.20
2022-08-02T06:16:14.186Z,3.00
2022-08-02T06:18:17.670Z,4.00
2022-08-02T06:20:20.597Z,3.47
2022-08-02T06:22:32.271Z,3.47
2022-08-02T06:24:37.993Z,3.67
2022-08-02T06:26:42.622Z,3.90
2022-08-02T06:28:46.666Z,3.58
2022-08-02T06:30:48.988Z,3.97
2022-08-02T06:32:54.057Z,3.45
2022-08-02T06:34:55.994Z,3.30
2022-08-02T06:37:09.134Z,3.65
2022-08-02T06:39:48.786Z,3.20
2022-08-02T06:41:52.422Z,3.25
2022-08-02T06:44:42.345Z,3.38
2022-08-02T06:46:54.389Z,2.92
2022-08-02T06:48:52.972Z,3.60
2022-08-02T06:50:54.848Z,3.08
2022-08-02T06:52:57.179Z,3.90
2022-08-02T06:55:01.458Z,3.92
2022-08-02T06:57:03.282Z,3.63
2022-08-02T06:59:06.176Z,3.42
2022-08-02T07:01:09.830Z,3.97
2022-08-02T07:03:11.893Z,3.63
2022-08-02T07:05:13.859Z,3.50
2022-08-02T07:07:15.758Z,3.13
2022-08-02T07:09:21.004Z,3.05
2022-08-02T07:11:24.107Z,3.20
2022-08-02T07:13:25.949Z,3.30
2022-08-02T07:15:27.960Z,3.00
2022-08-02T07:17:30.318Z,3.20
2022-08-02T07:19:37.533Z,3.05
2022-08-02T07:21:59.416Z,3.15
2022-08-02T07:24:01.863Z,3.40
2022-08-02T07:26:05.337Z,3.50
2022-08-02T07:28:16.840Z,3.22
2022-08-02T07:30:25.630Z,3.10
2022-08-02T07:32:30.866Z,3.17
2022-08-02T07:34:32.726Z,3.10
2022-08-02T07:36:34.683Z,3.17
2022-08-02T07:38:37.574Z,3.20
2022-08-02T07:40:39.553Z,2.97
2022-08-02T07:42:43.530Z,3.15
2022-08-02T07:44:49.127Z,3.70
2022-08-02T07:46:51.170Z,3.30
2022-08-02T07:48:54.859Z,3.22
2022-08-02T07:50:57.699Z,3.13
2022-08-02T07:52:59.564Z,2.80
2022-08-02T07:55:01.496Z,2.92
2022-08-02T07:57:03.751Z,2.70
2022-08-02T07:59:05.658Z,3.17
2022-08-02T08:01:07.848Z,3.05
2022-08-02T08:03:09.848Z,2.88
2022-08-02T08:05:12.256Z,2.90
2022-08-02T08:07:14.083Z,2.65
2022-08-02T08:09:15.952Z,2.65
2022-08-02T08:11:18.212Z,2.83
2022-08-02T08:13:19.988Z,2.30
2022-08-02T08:15:21.948Z,2.85
2022-08-02T08:17:23.748Z,2.47
2022-08-02T08:19:50.138Z,3.17
2022-08-02T08:21:47.940Z,3.40
2022-08-02T08:23:50.461Z,2.85
2022-08-02T08:25:52.248Z,2.35
2022-08-02T08:27:54.233Z,2.60
2022-08-02T08:29:56.133Z,2.25
2022-08-02T08:31:58.374Z,2.10
2022-08-02T08:34:01.196Z,2.47
2022-08-02T08:36:04.388Z,2.42
2022-08-02T08:38:07.903Z,2.88
2022-08-02T08:40:11.219Z,2.60
2022-08-02T08:42:13.361Z,2.30
2022-08-02T08:44:15.321Z,2.28
2022-08-02T08:46:29.480Z,2.40
2022-08-02T08:48:35.605Z,2.38
2022-08-02T08:50:43.181Z,2.45
2022-08-02T08:53:08.803Z,2.05
2022-08-02T08:55:16.125Z,1.92
2022-08-02T08:57:20.376Z,2.63
2022-08-02T08:59:22.249Z,2.25
2022-08-02T09:01:24.147Z,2.08
2022-08-02T09:03:26.028Z,1.98
2022-08-02T09:05:28.308Z,2.30
2022-08-02T09:07:30.272Z,2.20
2022-08-02T09:09:31.994Z,1.90
2022-08-02T09:11:33.889Z,2.30
2022-08-02T09:13:44.961Z,2.00
2022-08-02T09:15:54.232Z,2.30
2022-08-02T09:17:55.945Z,2.08
2022-08-02T09:20:08.586Z,2.40
2022-08-02T09:22:12.199Z,2.28
2022-08-02T09:24:22.439Z,2.30
2022-08-02T09:26:24.463Z,2.05
2022-08-02T09:28:28.846Z,2.15
2022-08-02T09:30:31.350Z,1.95
2022-08-02T09:32:45.660Z,1.75
2022-08-02T09:34:49.976Z,2.20
2022-08-02T09:36:54.770Z,2.40
2022-08-02T09:39:03.095Z,2.28
2022-08-02T09:41:21.881Z,2.45
2022-08-02T09:43:57.933Z,2.35
2022-08-02T09:46:10.974Z,2.50
2022-08-02T09:48:12.886Z,2.40
2022-08-02T09:50:15.141Z,2.30
2022-08-02T09:52:37.343Z,2.50
2022-08-02T09:54:45.458Z,2.30
2022-08-02T09:56:50.018Z,2.80
2022-08-02T09:58:55.155Z,2.60
2022-08-02T10:01:01.804Z,2.10
2022-08-02T10:03:21.475Z,2.50
2022-08-02T10:05:35.589Z,2.53
2022-08-02T10:07:44.832Z,2.28
2022-08-02T10:09:48.631Z,2.38
2022-08-02T10:11:52.036Z,2.40
2022-08-02T10:13:54.226Z,1.83
2022-08-02T10:15:59.525Z,2.03
2022-08-02T10:18:09.404Z,2.33
2022-08-02T10:20:23.952Z,2.63
2022-08-02T10:22:26.197Z,2.15
2022-08-02T10:24:30.531Z,2.50
2022-08-02T10:26:32.907Z,2.80
2022-08-02T10:28:36.330Z,2.00
2022-08-02T10:30:41.010Z,1.90
2022-08-02T10:32:46.196Z,2.15
2022-08-02T10:35:18.683Z,2.20
2022-08-02T10:37:26.987Z,2.10
2022-08-02T10:39:29.132Z,2.25
2022-08-02T10:41:49.641Z,2.50
2022-08-02T10:43:51.458Z,2.28
2022-08-02T10:45:53.243Z,2.40
2022-08-02T10:48:06.165Z,2.20
2022-08-02T10:50:09.075Z,2.35
2022-08-02T10:52:14.333Z,2.33
2022-08-02T10:54:21.654Z,2.40
2022-08-02T10:56:47.173Z,2.67
2022-08-02T10:59:29.454Z,2.58
2022-08-02T11:01:38.634Z,2.40
2022-08-02T11:03:41.669Z,2.10
2022-08-02T11:05:43.989Z,2.17
2022-08-02T11:07:49.636Z,2.00
2022-08-02T11:09:51.640Z,2.15
2022-08-02T11:12:07.917Z,2.17
2022-08-02T11:14:14.659Z,2.08
2022-08-02T11:16:16.491Z,2.22
2022-08-02T11:18:19.530Z,2.58
2022-08-02T11:20:23.523Z,2.05
2022-08-02T11:22:26.066Z,2.28
2022-08-02T11:24:34.871Z,2.30
2022-08-02T11:26:37.872Z,2.35
2022-08-02T11:28:39.772Z,2.70
2022-08-02T11:30:42.122Z,2.28
2022-08-02T11:32:44.077Z,2.42
2022-08-02T11:34:48.728Z,2.47
2022-08-02T11:36:52.210Z,2.45
2022-08-02T11:39:15.754Z,2.67
2022-08-02T11:41:47.035Z,2.28
2022-08-02T11:43:44.570Z,2.30
2022-08-02T11:45:47.040Z,2.47
2022-08-02T11:47:51.365Z,2.55
2022-08-02T11:50:03.629Z,2.35
2022-08-02T11:52:07.216Z,2.45
2022-08-02T11:54:09.420Z,2.47
2022-08-02T11:56:12.503Z,2.30
2022-08-02T11:58:14.369Z,2.40
2022-08-02T12:00:18.490Z,2.33
2022-08-02T12:02:22.733Z,2.67
2022-08-02T12:04:24.542Z,2.15
2022-08-02T12:06:31.338Z,2.25
2022-08-02T12:08:34.024Z,2.08
2022-08-02T12:10:36.009Z,2.28
2022-08-02T12:12:54.418Z,2.47
2022-08-02T12:14:56.237Z,2.40
2022-08-02T12:17:17.322Z,2.45
2022-08-02T12:19:19.681Z,2.58
2022-08-02T12:21:26.796Z,2.60
2022-08-02T12:23:28.911Z,2.00
2022-08-02T12:25:35.467Z,2.60
2022-08-02T12:27:41.395Z,2.47
2022-08-02T12:29:57.636Z,2.53
2022-08-02T12:32:02.091Z,2.42
2022-08-02T12:34:15.093Z,2.58
2022-08-02T12:36:19.962Z,2.50
2022-08-02T12:38:22.582Z,2.50
2022-08-02T12:40:32.667Z,2.75
2022-08-02T12:42:48.635Z,2.30
2022-08-02T12:45:01.285Z,2.50
2022-08-02T12:47:09.806Z,2.45
2022-08-02T12:49:18.370Z,2.55
2022-08-02T12:51:50.782Z,2.38
2022-08-02T12:54:13.060Z,2.55
2022-08-02T12:56:36.927Z,2.70
2022-08-02T12:58:51.740Z,2.30
2022-08-02T13:00:58.804Z,2.20
2022-08-02T13:03:00.998Z,2.40
2022-08-02T13:05:02.982Z,2.40
2022-08-02T13:07:05.366Z,2.10
2022-08-02T13:09:16.256Z,2.30
2022-08-02T13:11:18.219Z,2.30
2022-08-02T13:13:20.352Z,2.17
2022-08-02T13:15:50.405Z,2.92
2022-08-02T13:17:44.906Z,2.58
2022-08-02T13:19:51.020Z,2.60
2022-08-02T13:22:11.314Z,2.28
2022-08-02T13:24:23.279Z,2.33
2022-08-02T13:26:38.058Z,2.35
2022-08-02T13:28:42.746Z,2.22
2022-08-02T13:30:46.313Z,2.40
2022-08-02T13:32:48.240Z,2.40
2022-08-02T13:34:50.766Z,2.67
2022-08-02T13:36:52.556Z,2.17
2022-08-02T13:38:54.374Z,2.10
2022-08-02T13:41:12.740Z,2.42
2022-08-02T13:43:14.536Z,2.22
2022-08-02T13:45:16.510Z,2.00
2022-08-02T13:47:26.612Z,2.03
2022-08-02T13:49:51.032Z,2.03
2022-08-02T13:51:55.040Z,2.38
2022-08-02T13:53:56.817Z,2.30
2022-08-02T13:55:58.988Z,2.25
2022-08-02T13:58:00.927Z,2.28
2022-08-02T14:00:03.230Z,2.10
2022-08-02T14:02:07.302Z,2.40
2022-08-02T14:04:09.676Z,2.03
2022-08-02T14:06:11.612Z,2.25
2022-08-02T14:08:16.566Z,2.28
2022-08-02T14:10:19.175Z,1.83
2022-08-02T14:12:21.090Z,2.20
2022-08-02T14:14:22.964Z,2.22
2022-08-02T14:16:30.384Z,2.53
2022-08-02T14:18:35.247Z,2.47
2022-08-02T14:20:37.219Z,2.55
2022-08-02T14:22:39.169Z,2.53
2022-08-02T14:24:41.787Z,2.50
2022-08-02T14:26:44.584Z,2.40
2022-08-02T14:28:49.930Z,2.47
2022-08-02T14:30:53.209Z,2.63
2022-08-02T14:32:55.161Z,2.60
2022-08-02T14:34:56.946Z,2.30
2022-08-02T14:36:58.695Z,2.30
2022-08-02T14:39:01.983Z,2.72
2022-08-02T14:41:04.024Z,2.33
2022-08-02T14:43:05.926Z,2.60
2022-08-02T14:45:10.627Z,2.42
2022-08-02T14:47:13.420Z,2.50
2022-08-02T14:49:25.919Z,2.60
2022-08-02T14:51:31.692Z,2.80
2022-08-02T14:53:38.072Z,2.85
2022-08-02T14:55:51.627Z,3.30
2022-08-02T14:57:53.407Z,2.80
2022-08-02T14:59:55.277Z,2.78
2022-08-02T15:01:57.560Z,2.88
2022-08-02T15:03:59.530Z,2.67
2022-08-02T15:06:01.547Z,2.60
2022-08-02T15:08:03.498Z,3.10
2022-08-02T15:10:05.851Z,2.28
2022-08-02T15:12:09.171Z,2.90
2022-08-02T15:14:11.392Z,2.90
2022-08-02T15:16:13.350Z,3.05
2022-08-02T15:18:15.233Z,2.85
2022-08-02T15:20:25.640Z,3.00
2022-08-02T15:22:28.952Z,3.25
2022-08-02T15:24:31.289Z,2.60
2022-08-02T15:26:33.150Z,2.30
2022-08-02T15:28:35.532Z,3.08
2022-08-02T15:30:38.372Z,2.50
2022-08-02T15:32:40.175Z,2.97
2022-08-02T15:34:55.392Z,2.45
2022-08-02T15:36:57.231Z,2.60
2022-08-02T15:38:59.175Z,2.75
2022-08-02T15:41:01.660Z,2.67
2022-08-02T15:43:03.730Z,3.08
2022-08-02T15:45:06.042Z,4.70
2022-08-02T15:47:08.269Z,4.07
2022-08-02T15:49:10.194Z,3.67
2022-08-02T15:51:12.129Z,7.45
2022-08-02T15:53:13.937Z,5.28
2022-08-02T15:55:16.075Z,4.60
2022-08-02T15:57:17.967Z,4.63
2022-08-02T15:59:19.759Z,6.32
2022-08-02T16:01:21.852Z,5.40
2022-08-02T16:03:23.710Z,4.18
2022-08-02T16:05:25.598Z,3.60
2022-08-02T16:07:27.400Z,3.42
2022-08-02T16:09:29.328Z,3.30
2022-08-02T16:11:31.506Z,2.70
2022-08-02T16:13:54.488Z,3.05
2022-08-02T16:15:57.512Z,3.60
2022-08-02T16:17:59.626Z,3.17
2022-08-02T16:20:01.941Z,2.88
2022-08-02T16:22:03.764Z,3.50
2022-08-02T16:24:05.777Z,2.85
2022-08-02T16:26:07.681Z,3.30
2022-08-02T16:28:09.431Z,3.72
2022-08-02T16:30:12.100Z,3.60
2022-08-02T16:32:15.959Z,4.05
2022-08-02T16:34:18.176Z,3.40
2022-08-02T16:36:20.133Z,3.58
2022-08-02T16:38:22.252Z,3.50
2022-08-02T16:40:24.277Z,3.70
2022-08-02T16:42:26.048Z,3.83
2022-08-02T16:44:30.121Z,3.50
2022-08-02T16:46:32.356Z,3.10
2022-08-02T16:48:34.170Z,3.25
2022-08-02T16:50:36.412Z,3.10
2022-08-02T16:52:38.746Z,4.30
2022-08-02T16:54:41.485Z,3.92
2022-08-02T16:56:43.383Z,4.50
2022-08-02T16:58:45.208Z,3.33
2022-08-02T17:00:49.724Z,3.70
2022-08-02T17:02:52.167Z,4.13
2022-08-02T17:04:54.040Z,3.85
2022-08-02T17:06:55.771Z,3.60
2022-08-02T17:08:59.718Z,3.60
2022-08-02T17:11:03.211Z,3.53
2022-08-02T17:13:11.273Z,3.28
2022-08-02T17:16:07.539Z,3.33
2022-08-02T17:17:39.335Z,3.45
2022-08-02T17:19:43.711Z,3.88
2022-08-02T17:21:45.586Z,3.50
2022-08-02T17:24:08.356Z,3.92
2022-08-02T17:26:09.450Z,4.05
2022-08-02T17:28:11.369Z,3.60
2022-08-02T17:30:13.702Z,4.13
2022-08-02T17:32:18.200Z,3.95
2022-08-02T17:34:26.951Z,4.13
2022-08-02T17:36:28.989Z,4.13
2022-08-02T17:38:31.377Z,4.18
2022-08-02T17:40:33.109Z,4.00
2022-08-02T17:42:35.640Z,3.97
2022-08-02T17:44:38.389Z,4.18
2022-08-02T17:46:40.468Z,4.85
2022-08-02T17:49:00.964Z,4.32
2022-08-02T17:51:04.253Z,4.57
2022-08-02T17:53:06.061Z,4.10
2022-08-02T17:55:10.688Z,4.55
2022-08-02T17:57:12.966Z,4.28
2022-08-02T17:59:31.239Z,5.07
2022-08-02T18:01:52.446Z,5.50
2022-08-02T18:03:54.775Z,4.68
2022-08-02T18:05:56.538Z,5.03
2022-08-02T18:08:00.799Z,4.32
2022-08-02T18:10:03.287Z,4.45
2022-08-02T18:12:06.740Z,4.45
2022-08-02T18:14:08.510Z,4.22
2022-08-02T18:16:20.923Z,4.00
2022-08-02T18:18:30.115Z,4.30
2022-08-02T18:20:32.626Z,3.95
2022-08-02T18:22:34.475Z,4.25
2022-08-02T18:24:37.393Z,4.65
2022-08-02T18:26:43.509Z,4.82
2022-08-02T18:28:45.862Z,5.20
2022-08-02T18:30:48.263Z,4.75
2022-08-02T18:33:56.938Z,4.40
2022-08-02T18:35:12.692Z,4.15
2022-08-02T18:37:14.556Z,4.82
2022-08-02T18:39:19.578Z,4.35
2022-08-02T18:41:21.662Z,5.10
2022-08-02T18:43:25.432Z,4.57
2022-08-02T18:46:05.902Z,4.75
2022-08-02T18:47:51.434Z,4.82
2022-08-02T18:49:56.267Z,5.40
2022-08-02T18:51:58.351Z,4.28
2022-08-02T18:54:01.284Z,3.72
2022-08-02T18:56:05.210Z,4.50
2022-08-02T18:58:19.675Z,6.00
2022-08-02T19:00:25.588Z,6.93
2022-08-02T19:02:28.391Z,7.85
2022-08-02T19:04:31.306Z,7.65
2022-08-02T19:06:34.947Z,7.18
2022-08-02T19:08:36.817Z,8.23
2022-08-02T19:10:40.034Z,6.35
2022-08-02T19:12:51.666Z,6.50
2022-08-02T19:14:53.567Z,6.82
2022-08-02T19:16:57.964Z,5.78
2022-08-02T19:19:02.652Z,5.63
2022-08-02T19:21:07.338Z,6.68
2022-08-02T19:23:10.607Z,7.07
2022-08-02T19:25:17.817Z,6.95
2022-08-02T19:27:25.797Z,7.43
2022-08-02T19:29:42.920Z,7.00
2022-08-02T19:32:00.154Z,6.10
2022-08-02T19:34:07.230Z,5.97
2022-08-02T19:36:09.894Z,5.15
2022-08-02T19:38:13.725Z,5.03
2022-08-02T19:40:20.689Z,5.07
2022-08-02T19:42:25.076Z,5.25
2022-08-02T19:44:29.575Z,4.80
2022-08-02T19:46:31.660Z,4.90
2022-08-02T19:48:33.643Z,4.53
2022-08-02T19:50:35.486Z,4.40
2022-08-02T19:52:37.527Z,4.45
2022-08-02T19:54:54.926Z,4.53
2022-08-02T19:56:58.452Z,4.53
2022-08-02T19:59:00.940Z,3.85
2022-08-02T20:01:16.831Z,4.18
2022-08-02T20:03:19.696Z,4.13
2022-08-02T20:05:41.653Z,4.18
2022-08-02T20:07:54.344Z,4.15
2022-08-02T20:09:58.336Z,4.07
2022-08-02T20:12:00.186Z,4.30
2022-08-02T20:14:04.261Z,4.03
2022-08-02T20:16:06.266Z,4.53
2022-08-02T20:18:09.373Z,4.40
2022-08-02T20:20:12.365Z,4.47
2022-08-02T20:22:15.931Z,4.70
2022-08-02T20:24:18.255Z,4.82
2022-08-02T20:26:20.203Z,4.75
2022-08-02T20:28:23.957Z,4.00
2022-08-02T20:30:26.449Z,4.40
2022-08-02T20:32:28.250Z,3.95
2022-08-02T20:34:30.305Z,4.32
2022-08-02T20:36:32.175Z,4.57
2022-08-02T20:38:34.154Z,4.40
2022-08-02T20:40:36.126Z,4.85
2022-08-02T20:42:38.399Z,4.70
2022-08-02T20:44:40.913Z,4.50
2022-08-02T20:46:44.104Z,4.93
2022-08-02T20:48:45.912Z,3.97
2022-08-02T20:50:54.349Z,4.80
2022-08-02T20:52:56.211Z,4.72
2022-08-02T20:54:58.027Z,4.80
2022-08-02T20:56:59.763Z,4.32
2022-08-02T20:59:16.039Z,5.32
2022-08-02T21:01:18.123Z,5.40
2022-08-02T21:03:23.684Z,4.80
2022-08-02T21:05:43.234Z,5.05
2022-08-02T21:07:53.330Z,5.32
2022-08-02T21:09:55.553Z,4.80
2022-08-02T21:11:57.521Z,4.63
2022-08-02T21:14:07.773Z,5.20
2022-08-02T21:16:13.691Z,4.80
2022-08-02T21:18:21.496Z,5.25
2022-08-02T21:20:35.252Z,5.93
2022-08-02T21:22:37.249Z,6.95
2022-08-02T21:24:39.031Z,8.48
2022-08-02T21:26:40.890Z,9.60
2022-08-02T21:28:45.269Z,9.32
2022-08-02T21:30:47.175Z,7.88
2022-08-02T21:32:54.714Z,7.50
2022-08-02T21:34:58.848Z,7.47
2022-08-02T21:37:00.672Z,6.63
2022-08-02T21:39:12.326Z,6.63
2022-08-02T21:41:14.356Z,6.50
2022-08-02T21:43:21.512Z,7.00
2022-08-02T21:45:40.373Z,6.70
2022-08-02T21:47:55.729Z,6.13
2022-08-02T21:50:10.353Z,7.20
2022-08-02T21:52:16.530Z,6.93
2022-08-02T21:54:20.872Z,7.68
2022-08-02T21:56:23.850Z,8.43
2022-08-02T21:58:25.808Z,7.05
2022-08-02T22:00:29.501Z,7.07
2022-08-02T22:02:31.432Z,6.70
2022-08-02T22:04:33.268Z,6.55
2022-08-02T22:06:35.411Z,7.10
2022-08-02T22:08:38.290Z,6.43
2022-08-02T22:10:58.892Z,6.30
2022-08-02T22:13:01.661Z,6.55
2022-08-02T22:15:06.007Z,6.13
2022-08-02T22:17:13.739Z,6.35
2022-08-02T22:19:15.827Z,6.78
2022-08-02T22:21:18.072Z,6.30
2022-08-02T22:23:22.710Z,6.15
2022-08-02T22:25:40.965Z,5.72
2022-08-02T22:28:34.773Z,5.68
2022-08-02T22:30:05.319Z,5.90
2022-08-02T22:32:07.547Z,5.28
2022-08-02T22:34:11.668Z,6.18
2022-08-02T22:36:38.608Z,5.68
2022-08-02T22:38:46.454Z,6.20
2022-08-02T22:40:49.503Z,5.43
2022-08-02T22:42:51.252Z,6.00
2022-08-02T22:44:53.099Z,5.78
2022-08-02T22:46:55.026Z,5.32
2022-08-02T22:48:57.112Z,5.97
2022-08-02T22:50:59.129Z,5.75
2022-08-02T22:53:03.027Z,5.40
2022-08-02T22:55:05.444Z,5.32
2022-08-02T22:57:11.420Z,5.88
2022-08-02T22:59:21.072Z,5.38
2022-08-02T23:01:35.594Z,5.38
2022-08-02T23:03:39.240Z,5.57
2022-08-02T23:05:41.526Z,5.07
2022-08-02T23:07:43.420Z,5.03
2022-08-02T23:09:45.304Z,5.05
2022-08-02T23:11:47.062Z,4.95
2022-08-02T23:13:48.857Z,5.43
2022-08-02T23:16:09.231Z,5.07
2022-08-02T23:18:29.796Z,5.45
2022-08-02T23:20:31.717Z,5.03
2022-08-02T23:22:33.482Z,5.28
2022-08-02T23:24:35.510Z,6.15
2022-08-02T23:26:37.437Z,5.47
2022-08-02T23:28:39.299Z,6.13
2022-08-02T23:30:41.098Z,5.35
2022-08-02T23:32:42.903Z,5.35
2022-08-02T23:34:45.614Z,5.53
2022-08-02T23:36:47.430Z,5.40
2022-08-02T23:38:49.375Z,4.97
2022-08-02T23:40:51.261Z,5.35
2022-08-02T23:42:53.051Z,5.18
2022-08-02T23:44:55.338Z,5.50
2022-08-02T23:46:58.015Z,5.35
2022-08-02T23:48:59.980Z,5.50
2022-08-02T23:51:01.762Z,5.50
2022-08-02T23:53:03.967Z,5.20
2022-08-02T23:55:06.384Z,5.15
2022-08-02T23:57:20.157Z,5.72
2022-08-02T23:59:23.165Z,5.10
